Time;durP1;ratioP1;P1;durP2;ratioP2;P2;SDS_P1;SDS_P2;PMS_P1;PMS_P2;Temp;Humidity;BMP_temperature;BMP_pressure;BME280_temperature;BME280_humidity;BME280_pressure;Samples;Min_cycle;Max_cycle;Signal;HPM_P1;HPM_P2
2021/01/18 00:04:13;;;;;;;33.20;15.25;;;;;;;-5.88;100.00;94835.88;10532588;28;20498;-76
2021/01/18 00:09:14;;;;;;;30.50;15.52;;;;;;;-5.92;100.00;94831.94;10533137;28;20147;-77
2021/01/18 00:14:14;;;;;;;36.65;15.23;;;;;;;-6.07;100.00;94846.75;10520204;28;20108;-77
2021/01/18 00:19:14;;;;;;;36.45;16.20;;;;;;;-6.23;100.00;94855.47;10490640;28;20055;-78
2021/01/18 00:24:15;;;;;;;31.87;15.00;;;;;;;-6.20;100.00;94855.94;10491225;28;20029;-76
2021/01/18 00:29:15;;;;;;;33.25;16.92;;;;;;;-6.22;100.00;94863.13;10489354;28;20603;-76
2021/01/18 00:34:15;;;;;;;27.63;15.18;;;;;;;-6.18;100.00;94864.44;10486532;28;20020;-77
2021/01/18 00:39:16;;;;;;;30.67;14.05;;;;;;;-6.25;100.00;94875.72;10488224;28;20031;-76
2021/01/18 00:44:16;;;;;;;64.17;23.90;;;;;;;-6.31;100.00;94879.81;10488568;28;20115;-77
2021/01/18 00:49:16;;;;;;;68.03;33.77;;;;;;;-6.95;100.00;94877.03;10490095;28;20277;-76
2021/01/18 00:54:17;;;;;;;57.57;31.93;;;;;;;-7.16;100.00;94880.09;10531354;28;20289;-77
2021/01/18 00:59:17;;;;;;;68.47;29.90;;;;;;;-7.34;100.00;94885.44;10530921;28;20281;-77
2021/01/18 01:04:18;;;;;;;61.42;29.67;;;;;;;-7.50;100.00;94886.22;10527764;28;20096;-77
2021/01/18 01:09:18;;;;;;;70.25;30.00;;;;;;;-7.59;100.00;94882.72;10529699;28;20494;-77
2021/01/18 01:14:18;;;;;;;80.50;35.60;;;;;;;-7.77;100.00;94872.38;10530713;28;20085;-77
2021/01/18 01:19:19;;;;;;;68.73;33.50;;;;;;;-7.70;100.00;94877.81;10530073;28;20043;-78
2021/01/18 01:24:20;;;;;;;59.70;29.13;;;;;;;-7.53;100.00;94887.34;10530985;28;20684;-77
2021/01/18 01:29:20;;;;;;;65.22;30.50;;;;;;;-7.41;100.00;94890.47;10528570;28;20691;-77
2021/01/18 01:34:21;;;;;;;61.47;27.93;;;;;;;-7.45;100.00;94890.00;10528173;28;20028;-77
2021/01/18 01:39:21;;;;;;;67.93;27.10;;;;;;;-7.41;100.00;94890.47;10527376;28;20035;-77
2021/01/18 01:44:21;;;;;;;62.77;29.60;;;;;;;-7.40;100.00;94887.69;10528268;28;20293;-78
2021/01/18 01:49:22;;;;;;;79.43;30.92;;;;;;;-7.47;100.00;94876.25;10527904;28;20262;-78
2021/01/18 01:54:22;;;;;;;69.00;30.07;;;;;;;-7.50;100.00;94879.19;10528127;28;20355;-77
2021/01/18 01:59:23;;;;;;;66.78;28.67;;;;;;;-7.56;100.00;94885.88;10529294;28;20293;-77
2021/01/18 02:04:23;;;;;;;65.28;29.92;;;;;;;-7.88;100.00;94889.16;10528863;28;20035;-77
2021/01/18 02:09:24;;;;;;;64.05;33.17;;;;;;;-7.92;100.00;94887.81;10527453;28;20028;-77
2021/01/18 02:14:40;;;;;;;64.40;27.93;;;;;;;-7.82;100.00;94898.16;10529345;28;20030;-77
2021/01/18 02:19:59;;;;;;;62.78;28.30;;;;;;;-7.81;100.00;94890.16;10527708;28;20301;-77
2021/01/18 02:25:48;;;;;;;62.78;26.35;;;;;;;-7.77;100.00;94909.75;10528454;28;20046;-77
2021/01/18 02:31:07;;;;;;;64.10;28.23;;;;;;;-7.53;100.00;94908.22;10508001;28;20045;-77
2021/01/18 02:36:28;;;;;;;63.45;27.98;;;;;;;-7.30;100.00;94895.41;10528843;28;20050;-77
2021/01/18 02:41:48;;;;;;;60.30;27.40;;;;;;;-7.20;100.00;94903.09;10527886;28;20028;-77
2021/01/18 02:46:49;;;;;;;54.17;27.25;;;;;;;-7.03;100.00;94893.53;10527696;28;20016;-77
2021/01/18 02:51:55;;;;;;;54.70;23.77;;;;;;;-6.89;100.00;94889.47;10528297;28;20396;-76
2021/01/18 02:56:56;;;;;;;50.42;25.70;;;;;;;-6.74;100.00;94898.31;10508570;28;20024;-76
2021/01/18 03:02:14;;;;;;;62.10;27.83;;;;;;;-6.61;100.00;94902.22;10530956;28;20027;-76
2021/01/18 03:07:20;;;;;;;53.88;27.08;;;;;;;-6.66;100.00;94899.28;10533878;28;20035;-77
2021/01/18 03:12:28;;;;;;;47.88;20.40;;;;;;;-6.55;100.00;94906.78;10532207;28;20028;-76
2021/01/18 03:17:30;;;;;;;;;;;;;;;-6.42;100.00;94912.38;10534158;28;20051;-77
2021/01/18 03:22:30;;;;;;;40.70;19.48;;;;;;;-6.40;100.00;94917.44;10514677;28;19920;-77
2021/01/18 03:27:51;;;;;;;39.85;17.67;;;;;;;-6.30;100.00;94912.84;10492282;28;20028;-76
2021/01/18 03:32:54;;;;;;;40.13;17.63;;;;;;;-6.16;100.00;94913.16;10492942;28;20024;-77
2021/01/18 03:37:57;;;;;;;39.78;20.95;;;;;;;-6.06;100.00;94917.22;10492086;28;20538;-77
2021/01/18 03:42:58;;;;;;;39.97;17.50;;;;;;;-6.10;100.00;94915.09;10492113;28;20078;-73
2021/01/18 03:47:58;;;;;;;45.17;17.63;;;;;;;-6.19;100.00;94907.25;10496965;28;20143;-75
2021/01/18 03:52:59;;;;;;;45.30;15.98;;;;;;;-6.21;100.00;94911.03;10531084;28;20289;-76
2021/01/18 03:58:00;;;;;;;42.80;17.05;;;;;;;-6.42;100.00;94909.75;10530886;28;20416;-75
2021/01/18 04:03:01;;;;;;;38.13;17.80;;;;;;;-6.40;100.00;94920.03;10512299;28;20035;-75
2021/01/18 04:08:01;;;;;;;38.15;16.77;;;;;;;-6.61;100.00;94930.97;10529221;28;20047;-74
2021/01/18 04:13:02;;;;;;;35.10;18.65;;;;;;;-6.49;100.00;94934.09;10529162;28;20039;-74
2021/01/18 04:18:03;;;;;;;37.65;20.10;;;;;;;-6.67;100.00;94940.25;10511423;28;20028;-74
2021/01/18 04:23:04;;;;;;;45.40;21.90;;;;;;;-6.53;100.00;94941.41;10526108;28;20039;-74
2021/01/18 04:28:05;;;;;;;36.53;18.98;;;;;;;-6.31;100.00;94939.97;10528949;28;20036;-74
2021/01/18 04:33:08;;;;;;;42.50;22.00;;;;;;;-6.26;100.00;94935.06;10529187;28;20488;-77
2021/01/18 04:38:08;;;;;;;34.42;20.30;;;;;;;-6.31;100.00;94947.00;10528707;28;20471;-75
2021/01/18 04:43:13;;;;;;;53.53;24.70;;;;;;;-6.27;100.00;94938.66;10528506;28;20020;-76
2021/01/18 04:48:14;;;;;;;47.45;22.15;;;;;;;-6.36;100.00;94955.34;10524876;28;20089;-76
2021/01/18 04:53:16;;;;;;;35.25;17.98;;;;;;;-6.48;100.00;94954.84;10526405;28;20024;-76
2021/01/18 04:58:18;;;;;;;49.17;23.80;;;;;;;-6.54;100.00;94960.72;10526946;28;20039;-76
2021/01/18 05:03:19;;;;;;;43.00;24.00;;;;;;;-6.65;100.00;94956.63;10527131;28;20103;-75
2021/01/18 05:08:48;;;;;;;44.83;23.58;;;;;;;-6.89;100.00;94966.03;10526842;28;20074;-76
2021/01/18 05:13:48;;;;;;;47.50;22.67;;;;;;;-7.27;100.00;94970.00;10522002;28;20112;-75
2021/01/18 05:18:49;;;;;;;39.97;22.10;;;;;;;-7.13;100.00;94961.56;10526133;28;20161;-75
2021/01/18 05:23:49;;;;;;;52.22;23.48;;;;;;;-7.28;100.00;94981.44;10525600;28;20363;-75
2021/01/18 05:28:51;;;;;;;47.50;24.87;;;;;;;-7.40;100.00;94988.69;10526225;28;20020;-75
2021/01/18 05:34:00;;;;;;;40.42;22.92;;;;;;;-7.41;100.00;94989.66;10527645;28;20792;-76
2021/01/18 05:39:10;;;;;;;45.10;24.52;;;;;;;-7.33;100.00;94988.91;10513473;28;20530;-76
2021/01/18 05:44:11;;;;;;;41.85;22.70;;;;;;;-7.56;100.00;94990.25;10503573;28;20748;-73
2021/01/18 05:49:13;;;;;;;44.42;21.13;;;;;;;-7.44;100.00;95000.44;10487774;28;20064;-72
2021/01/18 05:54:13;;;;;;;44.63;22.67;;;;;;;-7.33;100.00;94999.34;10487838;28;20090;-73
2021/01/18 05:59:24;;;;;;;61.90;24.60;;;;;;;-7.17;100.00;95002.03;10485574;28;20085;-74
2021/01/18 06:04:28;;;;;;;48.67;22.83;;;;;;;-7.05;100.00;94997.34;10487027;28;20280;-73
2021/01/18 06:09:48;;;;;;;52.88;22.92;;;;;;;-6.93;100.00;95010.94;10486579;28;20035;-73
2021/01/18 06:15:02;;;;;;;46.95;22.30;;;;;;;-6.79;100.00;95006.91;10486969;28;20028;-73
2021/01/18 06:20:05;;;;;;;46.47;23.88;;;;;;;-6.57;100.00;95003.69;10514673;28;20131;-73
2021/01/18 06:25:13;;;;;;;46.20;21.02;;;;;;;-6.41;100.00;95012.53;10488095;28;20028;-73
2021/01/18 06:30:22;;;;;;;48.47;24.63;;;;;;;-6.26;100.00;95008.31;10487228;28;20454;-72
2021/01/18 06:35:24;;;;;;;53.95;22.67;;;;;;;-6.11;100.00;95016.34;10491215;28;20543;-73
2021/01/18 06:40:33;;;;;;;54.83;29.10;;;;;;;-6.05;100.00;95020.91;10494758;28;20032;-73
2021/01/18 06:45:39;;;;;;;50.33;22.40;;;;;;;-6.17;100.00;95030.03;10511348;28;20428;-72
2021/01/18 06:50:40;;;;;;;46.72;28.05;;;;;;;-6.66;100.00;95045.66;10536682;28;20097;-73
2021/01/18 06:55:59;;;;;;;53.78;27.73;;;;;;;-6.50;100.00;95039.63;10535432;28;20364;-74
2021/01/18 07:01:00;;;;;;;32.35;19.17;;;;;;;-6.44;100.00;95054.69;10535750;28;20047;-73
2021/01/18 07:06:23;;;;;;;21.60;10.50;;;;;;;-6.18;100.00;95055.41;10536139;28;20035;-74
2021/01/18 07:11:25;;;;;;;28.17;11.80;;;;;;;-6.07;100.00;95045.59;10532053;28;20204;-76
2021/01/18 07:16:25;;;;;;;32.55;13.38;;;;;;;-5.91;100.00;95050.00;10506400;28;20020;-74
2021/01/18 07:21:33;;;;;;;34.95;13.02;;;;;;;-5.75;100.00;95057.84;10494147;28;20043;-74
2021/01/18 07:26:55;;;;;;;25.07;10.87;;;;;;;-5.59;100.00;95053.59;10509289;28;20411;-75
2021/01/18 07:31:57;;;;;;;29.17;12.90;;;;;;;-5.58;100.00;95061.28;10494006;28;20028;-76
2021/01/18 07:37:09;;;;;;;22.75;9.25;;;;;;;-5.57;100.00;95062.09;10475053;28;20017;-73
2021/01/18 07:42:29;;;;;;;17.63;10.10;;;;;;;-5.49;100.00;95069.94;10492349;28;20021;-73
2021/01/18 07:47:30;;;;;;;25.10;10.00;;;;;;;-5.46;100.00;95068.78;10491974;28;20078;-74
2021/01/18 07:52:30;;;;;;;23.60;8.85;;;;;;;-5.19;94.01;95072.81;10508449;28;20127;-73
2021/01/18 07:57:39;;;;;;;22.00;10.05;;;;;;;-4.32;86.23;95077.28;10492552;28;20035;-73
2021/01/18 08:02:39;;;;;;;21.60;9.90;;;;;;;-3.91;80.71;95089.34;10492755;28;20085;-73
2021/01/18 08:08:04;;;;;;;18.63;9.47;;;;;;;-3.89;80.32;95088.19;10492119;28;20079;-73
2021/01/18 08:13:32;;;;;;;22.58;9.63;;;;;;;-3.68;82.93;95092.78;10492101;28;20843;-73
2021/01/18 08:18:32;;;;;;;19.13;8.48;;;;;;;-3.42;79.65;95094.22;10491831;28;20033;-73
2021/01/18 08:23:42;;;;;;;20.57;7.13;;;;;;;-3.14;73.06;95085.75;10491213;28;20052;-74
2021/01/18 08:28:52;;;;;;;24.08;9.07;;;;;;;-2.90;73.14;95075.97;10490811;28;20028;-73
2021/01/18 08:34:09;;;;;;;29.92;9.32;;;;;;;-2.75;69.60;95082.06;10491759;28;20024;-74
2021/01/18 08:39:10;;;;;;;30.40;8.90;;;;;;;-2.77;67.92;95081.44;10473147;28;20808;-73
2021/01/18 08:44:12;;;;;;;13.23;6.47;;;;;;;-2.99;68.48;95091.84;10490973;28;20027;-74
2021/01/18 08:49:24;;;;;;;21.08;8.13;;;;;;;-2.57;68.22;95068.53;10490626;28;20032;-73
2021/01/18 08:54:32;;;;;;;21.75;6.80;;;;;;;-2.12;62.56;95081.63;10490522;28;20032;-73
2021/01/18 08:59:33;;;;;;;15.85;8.25;;;;;;;-1.84;59.09;95087.00;10489119;28;20093;-72
2021/01/18 09:04:33;;;;;;;13.88;6.65;;;;;;;-1.77;57.02;95085.25;10489766;28;20024;-72
2021/01/18 09:09:38;;;;;;;35.03;8.43;;;;;;;-1.59;55.69;95087.44;10471931;28;20399;-73
2021/01/18 09:14:38;;;;;;;13.90;7.22;;;;;;;-1.54;54.23;95100.06;10489852;28;20391;-73
2021/01/18 09:19:54;;;;;;;16.13;7.40;;;;;;;-0.86;52.90;95087.19;10489833;28;20052;-73
2021/01/18 09:24:55;;;;;;;14.00;6.55;;;;;;;0.05;49.33;95076.69;10489338;28;20287;-74
2021/01/18 09:30:05;;;;;;;14.27;6.95;;;;;;;0.48;48.13;95069.22;10488971;28;20820;-75
2021/01/18 09:35:14;;;;;;;16.25;6.00;;;;;;;0.66;46.83;95054.59;10488658;28;20024;-74
2021/01/18 09:40:15;;;;;;;25.40;7.55;;;;;;;0.30;47.55;95051.31;10494011;28;20510;-73
2021/01/18 09:45:15;;;;;;;23.05;7.05;;;;;;;-0.14;47.80;95049.16;10489085;28;20091;-73
2021/01/18 09:50:18;;;;;;;19.08;6.70;;;;;;;0.59;48.22;95040.56;10487852;28;20035;-73
2021/01/18 09:55:31;;;;;;;22.95;7.15;;;;;;;1.09;46.24;95033.00;10502587;28;20029;-74
2021/01/18 10:00:35;;;;;;;14.82;7.47;;;;;;;1.72;45.54;95026.31;10488328;28;20030;-73
2021/01/18 10:05:41;;;;;;;16.70;6.32;;;;;;;3.69;41.50;95016.34;10487862;28;20728;-74
2021/01/18 10:10:47;;;;;;;12.55;6.30;;;;;;;5.63;37.30;95000.00;10487877;28;20028;-74
2021/01/18 10:15:48;;;;;;;14.38;7.10;;;;;;;7.43;34.18;94988.94;10487407;28;20020;-74
2021/01/18 10:20:53;;;;;;;16.00;7.93;;;;;;;8.45;31.87;94977.81;10487509;28;20424;-73
2021/01/18 10:25:53;;;;;;;21.52;7.22;;;;;;;9.60;30.15;94977.56;10487837;28;20036;-75
2021/01/18 10:30:54;;;;;;;11.93;6.10;;;;;;;10.17;29.15;94962.47;10487073;28;20411;-73
2021/01/18 10:35:54;;;;;;;13.50;5.47;;;;;;;10.58;28.12;94962.59;10487067;28;20078;-73
2021/01/18 10:41:13;;;;;;;14.30;6.32;;;;;;;11.28;27.64;94962.03;10487127;28;20032;-74
2021/01/18 10:46:18;;;;;;;10.90;5.70;;;;;;;10.18;28.66;94958.72;10487240;28;20214;-74
2021/01/18 10:51:24;;;;;;;15.68;6.20;;;;;;;10.30;28.05;94966.53;10487194;28;20032;-74
2021/01/18 10:56:33;;;;;;;22.95;6.88;;;;;;;9.93;27.97;94960.25;10468873;28;20016;-73
2021/01/18 11:01:33;;;;;;;9.82;5.13;;;;;;;9.55;28.42;94965.75;10487124;28;20024;-73
2021/01/18 11:06:35;;;;;;;12.35;6.28;;;;;;;9.01;28.93;94968.63;10486276;28;20549;-73
2021/01/18 11:11:37;;;;;;;14.75;7.43;;;;;;;9.73;27.80;94953.75;10486440;28;20475;-74
2021/01/18 11:16:38;;;;;;;11.75;6.32;;;;;;;10.24;27.89;94949.59;10486387;28;20020;-74
2021/01/18 11:21:38;;;;;;;14.13;7.73;;;;;;;10.48;28.16;94947.28;10488895;28;20049;-74
2021/01/18 11:26:39;;;;;;;10.67;5.33;;;;;;;10.12;27.77;94949.88;10493786;28;20352;-74
2021/01/18 11:31:39;;;;;;;11.98;5.82;;;;;;;11.28;26.50;94940.53;10493837;28;20075;-74
2021/01/18 11:36:40;;;;;;;15.93;6.60;;;;;;;11.16;26.69;94946.16;10493204;28;20506;-74
2021/01/18 11:41:41;;;;;;;21.67;7.40;;;;;;;9.87;27.56;94950.59;10493343;28;20441;-74
2021/01/18 11:46:41;;;;;;;15.57;7.77;;;;;;;9.23;29.08;94950.53;10493370;28;20028;-74
2021/01/18 11:51:42;;;;;;;12.23;7.28;;;;;;;9.37;28.86;94950.09;10492328;28;20278;-74
2021/01/18 11:56:42;;;;;;;13.27;7.07;;;;;;;8.99;29.28;94955.50;10492879;28;20054;-74
2021/01/18 12:01:44;;;;;;;14.65;7.18;;;;;;;7.49;30.43;94965.75;10492660;28;20031;-74
2021/01/18 12:06:44;;;;;;;16.75;7.32;;;;;;;6.25;32.65;94960.38;10491979;28;20162;-74
2021/01/18 12:11:45;;;;;;;13.43;7.73;;;;;;;3.92;35.86;94962.50;10491844;28;20484;-74
2021/01/18 12:16:45;;;;;;;19.30;7.30;;;;;;;1.76;40.79;94978.97;10474124;28;20262;-74
2021/01/18 12:21:45;;;;;;;21.60;9.33;;;;;;;0.27;44.21;94992.75;10491932;28;20894;-73
2021/01/18 12:26:50;;;;;;;22.48;9.55;;;;;;;-0.78;47.49;94987.78;10491196;28;20112;-73
2021/01/18 12:31:51;;;;;;;22.40;11.95;;;;;;;-1.56;50.35;94992.19;10491856;28;20056;-74
2021/01/18 12:36:56;;;;;;;22.93;8.80;;;;;;;-2.08;54.62;94998.59;10526687;28;20020;-74
2021/01/18 12:41:56;;;;;;;30.98;13.13;;;;;;;-2.37;57.52;94996.91;10532778;28;20795;-73
2021/01/18 12:46:58;;;;;;;19.63;9.13;;;;;;;-2.63;60.68;94996.41;10532224;28;20027;-74
2021/01/18 12:51:59;;;;;;;23.13;9.90;;;;;;;-2.83;63.54;95003.25;10532190;28;20039;-74
2021/01/18 12:57:00;;;;;;;20.17;9.30;;;;;;;-2.76;65.39;95004.16;10532192;28;20498;-73
2021/01/18 13:02:05;;;;;;;17.30;8.53;;;;;;;-2.61;64.76;95001.50;10532224;28;20031;-73
2021/01/18 13:07:06;;;;;;;20.65;10.65;;;;;;;-2.87;65.37;95002.81;10532763;28;20312;-74
2021/01/18 13:12:07;;;;;;;22.08;10.65;;;;;;;-3.10;67.25;95019.50;10532043;28;20024;-74
2021/01/18 13:17:08;;;;;;;21.15;9.32;;;;;;;-3.40;69.51;95013.41;10531196;28;20035;-74
2021/01/18 13:22:10;;;;;;;17.50;7.93;;;;;;;-3.51;71.47;95016.47;10531220;28;20059;-74
2021/01/18 13:27:10;;;;;;;21.30;9.43;;;;;;;-3.66;74.16;95021.69;10530969;28;20182;-73
2021/01/18 13:32:11;;;;;;;20.90;9.67;;;;;;;-3.62;75.82;95022.97;10530292;28;20020;-73
2021/01/18 13:37:11;;;;;;;32.80;12.03;;;;;;;-3.74;77.64;95027.00;10530553;28;20270;-74
2021/01/18 13:42:12;;;;;;;25.60;10.35;;;;;;;-3.89;78.57;95032.19;10530351;28;20024;-74
2021/01/18 13:47:12;;;;;;;197.15;69.50;;;;;;;-3.82;79.70;95044.47;10529827;28;20028;-73
2021/01/18 13:52:12;;;;;;;21.90;11.90;;;;;;;-3.84;78.64;95054.31;10530131;28;20024;-73
2021/01/18 13:57:13;;;;;;;34.40;13.63;;;;;;;-3.99;81.96;95051.66;10530604;28;20262;-73
2021/01/18 14:02:13;;;;;;;16.07;8.47;;;;;;;-4.27;81.98;95064.44;10529699;28;20274;-73
2021/01/18 14:07:13;;;;;;;100.97;35.17;;;;;;;-4.33;85.19;95075.63;10529189;28;20336;-74
2021/01/18 14:12:14;;;;;;;21.45;10.60;;;;;;;-4.67;85.62;95093.31;10529820;28;20031;-74
2021/01/18 14:17:14;;;;;;;173.38;62.72;;;;;;;-4.61;84.27;95094.44;10529384;28;20016;-74
2021/01/18 14:22:15;;;;;;;25.25;10.45;;;;;;;-4.59;85.83;95099.53;10529079;28;20048;-74
2021/01/18 14:27:15;;;;;;;20.80;7.83;;;;;;;-4.54;84.02;95082.28;10529413;28;20383;-74
2021/01/18 14:32:15;;;;;;;14.87;7.17;;;;;;;-4.76;84.48;95110.06;10528537;28;20648;-74
2021/01/18 14:37:16;;;;;;;17.30;7.97;;;;;;;-4.91;84.29;95103.88;10528767;28;20266;-75
2021/01/18 14:42:16;;;;;;;15.20;8.15;;;;;;;-5.13;87.60;95105.41;10521240;28;20369;-74
2021/01/18 14:47:17;;;;;;;12.57;7.93;;;;;;;-5.37;90.57;95107.91;10491217;28;20065;-74
2021/01/18 14:52:17;;;;;;;23.90;8.37;;;;;;;-5.36;93.70;95114.78;10528565;28;20278;-74
2021/01/18 14:57:17;;;;;;;22.10;9.77;;;;;;;-5.40;96.40;95110.84;10512728;28;20024;-74
2021/01/18 15:02:18;;;;;;;24.60;12.17;;;;;;;-5.61;98.32;95113.13;10494494;28;20270;-75
2021/01/18 15:07:18;;;;;;;28.63;10.90;;;;;;;-5.58;97.68;95116.25;10494460;28;20406;-74
2021/01/18 15:12:18;;;;;;;23.37;12.60;;;;;;;-5.80;98.83;95125.56;10493557;28;20328;-74
2021/01/18 15:17:19;;;;;;;23.70;15.10;;;;;;;-5.84;100.00;95119.84;10493945;28;20263;-75
2021/01/18 15:22:19;;;;;;;21.83;12.83;;;;;;;-5.94;100.00;95128.84;10493373;28;20052;-75
2021/01/18 15:27:19;;;;;;;19.33;13.80;;;;;;;-5.99;100.00;95131.13;10517627;28;20291;-74
2021/01/18 15:32:20;;;;;;;26.77;12.97;;;;;;;-6.08;100.00;95128.50;10535250;28;20286;-74
2021/01/18 15:37:20;;;;;;;22.07;12.37;;;;;;;-6.04;100.00;95132.44;10535523;28;20296;-74
2021/01/18 15:42:21;;;;;;;25.88;14.30;;;;;;;-6.09;100.00;95141.75;10534861;28;20262;-75
2021/01/18 15:47:21;;;;;;;23.30;14.70;;;;;;;-6.05;100.00;95143.06;10534682;28;20118;-74
2021/01/18 15:52:21;;;;;;;26.05;15.80;;;;;;;-6.03;100.00;95131.47;10516491;28;20032;-74
2021/01/18 15:57:22;;;;;;;32.93;16.33;;;;;;;-6.23;100.00;95136.13;10516313;28;20043;-74
2021/01/18 16:02:22;;;;;;;32.60;17.40;;;;;;;-6.35;100.00;95140.03;10533761;28;20479;-74
2021/01/18 16:07:22;;;;;;;30.97;16.13;;;;;;;-6.31;100.00;95154.41;10515558;28;20089;-74
2021/01/18 16:12:23;;;;;;;35.97;19.38;;;;;;;-6.46;100.00;95156.84;10534470;28;20613;-75
2021/01/18 16:17:24;;;;;;;32.07;15.60;;;;;;;-6.34;100.00;95159.16;10533077;28;20020;-75
2021/01/18 16:22:24;;;;;;;32.53;16.85;;;;;;;-6.33;100.00;95166.00;10533459;28;20306;-75
2021/01/18 16:27:25;;;;;;;35.55;17.17;;;;;;;-6.42;100.00;95155.53;10533291;28;20444;-75
2021/01/18 16:32:25;;;;;;;33.13;15.52;;;;;;;-6.33;100.00;95151.16;10532154;28;20070;-75
2021/01/18 16:37:28;;;;;;;35.33;16.60;;;;;;;-6.33;100.00;95152.94;10506851;28;20032;-75
2021/01/18 16:42:29;;;;;;;36.03;15.07;;;;;;;-6.32;100.00;95155.41;10523907;28;20032;-75
2021/01/18 16:47:29;;;;;;;28.52;12.82;;;;;;;-6.33;100.00;95150.31;10530192;28;20077;-76
2021/01/18 16:52:30;;;;;;;42.30;15.53;;;;;;;-6.46;100.00;95159.44;10529066;28;20035;-76
2021/01/18 16:57:34;;;;;;;35.05;14.75;;;;;;;-6.45;100.00;95174.13;10527859;28;20277;-76
2021/01/18 17:02:34;;;;;;;32.42;14.15;;;;;;;-6.45;100.00;95174.13;10535724;28;20434;-75
2021/01/18 17:07:35;;;;;;;23.73;10.70;;;;;;;-6.80;100.00;95170.72;10551595;28;20034;-76
2021/01/18 17:12:36;;;;;;;27.13;12.98;;;;;;;-6.87;100.00;95174.91;10503363;28;20094;-76
2021/01/18 17:17:37;;;;;;;23.90;11.95;;;;;;;-6.98;100.00;95180.41;10483383;28;20029;-75
2021/01/18 17:22:37;;;;;;;30.83;13.38;;;;;;;-6.90;100.00;95177.84;10486753;28;20125;-76
2021/01/18 17:27:38;;;;;;;27.95;15.50;;;;;;;-6.66;100.00;95171.94;10486834;28;20028;-76
2021/01/18 17:32:43;;;;;;;23.90;11.93;;;;;;;-6.63;100.00;95181.25;10488124;28;20027;-75
2021/01/18 17:37:44;;;;;;;30.33;15.10;;;;;;;-6.57;100.00;95186.69;10527944;28;20024;-76
2021/01/18 17:42:48;;;;;;;22.75;13.88;;;;;;;-6.63;100.00;95182.06;10527723;28;20497;-75
2021/01/18 17:47:49;;;;;;;25.35;14.25;;;;;;;-6.58;100.00;95192.06;10527759;28;20109;-76
2021/01/18 17:52:49;;;;;;;28.58;12.38;;;;;;;-6.61;100.00;95195.00;10520405;28;20085;-76
2021/01/18 17:57:49;;;;;;;25.77;13.07;;;;;;;-6.83;100.00;95197.16;10524173;28;20164;-76
2021/01/18 18:02:50;;;;;;;22.13;10.30;;;;;;;-6.77;100.00;95185.25;10524189;28;20270;-76
2021/01/18 18:07:50;;;;;;;20.45;10.38;;;;;;;-6.84;100.00;95176.41;10505375;28;20323;-76
2021/01/18 18:12:51;;;;;;;17.63;12.00;;;;;;;-6.81;100.00;95178.69;10507391;28;20469;-75
2021/01/18 18:17:52;;;;;;;21.33;11.63;;;;;;;-6.83;100.00;95175.44;10503454;28;20024;-70
2021/01/18 18:22:53;;;;;;;25.63;10.65;;;;;;;-6.89;100.00;95179.50;10504857;28;20312;-67
2021/01/18 18:27:53;;;;;;;23.98;11.40;;;;;;;-6.85;100.00;95193.06;10524021;28;20497;-68
2021/01/18 18:32:54;;;;;;;22.30;11.40;;;;;;;-6.82;100.00;95190.97;10531430;28;20031;-68
2021/01/18 18:37:57;;;;;;;17.43;11.73;;;;;;;-7.14;100.00;95199.41;10532077;28;20020;-68
2021/01/18 18:42:58;;;;;;;21.58;11.25;;;;;;;-7.01;100.00;95204.22;10538351;28;20261;-68
2021/01/18 18:47:58;;;;;;;20.85;11.30;;;;;;;-7.01;100.00;95201.63;10579088;28;20449;-68
2021/01/18 18:52:59;;;;;;;29.58;13.02;;;;;;;-7.00;100.00;95213.69;10578298;28;20045;-68
2021/01/18 18:57:59;;;;;;;23.35;11.70;;;;;;;-7.11;100.00;95204.31;10564458;28;20039;-68
2021/01/18 19:03:00;;;;;;;26.52;12.02;;;;;;;-7.10;100.00;95211.16;10493053;28;20047;-68
2021/01/18 19:08:00;;;;;;;20.33;10.20;;;;;;;-7.22;100.00;95200.16;10493690;28;20032;-68
2021/01/18 19:13:00;;;;;;;21.60;12.00;;;;;;;-7.41;100.00;95219.41;10493215;28;20277;-68
2021/01/18 19:18:02;;;;;;;20.57;10.30;;;;;;;-7.36;100.00;95232.03;10493085;28;20282;-68
2021/01/18 19:23:02;;;;;;;24.55;10.73;;;;;;;-7.32;100.00;95241.22;10492280;28;20678;-68
2021/01/18 19:28:03;;;;;;;21.23;12.18;;;;;;;-7.36;100.00;95237.25;10493059;28;20039;-68
2021/01/18 19:33:04;;;;;;;17.95;10.07;;;;;;;-7.21;100.00;95239.16;10498989;28;20032;-68
2021/01/18 19:38:07;;;;;;;18.65;9.07;;;;;;;-7.11;100.00;95239.09;10533080;28;20028;-68
2021/01/18 19:43:08;;;;;;;19.60;10.30;;;;;;;-7.18;100.00;95232.03;10532902;28;20028;-68
2021/01/18 19:48:09;;;;;;;23.83;12.55;;;;;;;-7.18;100.00;95237.25;10527759;28;20497;-68
2021/01/18 19:53:09;;;;;;;17.20;10.15;;;;;;;-7.13;100.00;95238.44;10491943;28;20024;-75
2021/01/18 19:58:10;;;;;;;16.10;10.55;;;;;;;-7.28;100.00;95235.53;10529037;28;20052;-75
2021/01/18 20:03:10;;;;;;;21.92;11.90;;;;;;;-7.20;100.00;95237.38;10498667;28;20024;-75
2021/01/18 20:08:11;;;;;;;22.93;14.60;;;;;;;-7.18;100.00;95232.84;10491660;28;20419;-75
2021/01/18 20:13:11;;;;;;;19.73;15.97;;;;;;;-7.16;100.00;95238.72;10491766;28;20275;-74
2021/01/18 20:18:11;;;;;;;19.20;13.53;;;;;;;-7.19;100.00;95238.22;10491155;28;20465;-75
2021/01/18 20:23:12;;;;;;;20.73;14.00;;;;;;;-7.24;100.00;95241.25;10491002;28;20307;-75
2021/01/18 20:28:12;;;;;;;21.17;14.35;;;;;;;-7.15;100.00;95235.13;10490533;28;20291;-75
2021/01/18 20:33:12;;;;;;;18.35;12.00;;;;;;;-7.16;100.00;95233.50;10498921;28;20036;-73
2021/01/18 20:38:13;;;;;;;23.03;11.53;;;;;;;-7.09;100.00;95242.38;10501234;28;20492;-73
2021/01/18 20:43:13;;;;;;;26.00;12.90;;;;;;;-7.17;100.00;95251.94;10529039;28;20036;-73
2021/01/18 20:48:14;;;;;;;20.20;12.50;;;;;;;-7.10;100.00;95247.72;10503704;28;20819;-74
2021/01/18 20:53:18;;;;;;;18.60;10.10;;;;;;;-7.11;100.00;95246.94;10498731;28;20286;-73
2021/01/18 20:58:19;;;;;;;24.27;13.90;;;;;;;-7.29;100.00;95238.28;10490317;28;20279;-72
2021/01/18 21:03:20;;;;;;;16.08;12.05;;;;;;;-7.28;100.00;95247.78;10522661;28;20109;-73
2021/01/18 21:08:21;;;;;;;23.58;14.85;;;;;;;-7.28;100.00;95253.00;10489877;28;20039;-73
2021/01/18 21:13:21;;;;;;;20.40;14.63;;;;;;;-7.21;100.00;95259.25;10515205;28;20027;-73
2021/01/18 21:18:22;;;;;;;21.07;16.70;;;;;;;-7.22;100.00;95265.44;10514887;28;20409;-72
2021/01/18 21:23:22;;;;;;;17.67;13.10;;;;;;;-7.21;100.00;95267.09;10490665;28;20303;-72
2021/01/18 21:28:24;;;;;;;17.55;15.32;;;;;;;-7.23;100.00;95275.09;10490339;28;20036;-72
2021/01/18 21:33:28;;;;;;;21.00;14.40;;;;;;;-7.22;100.00;95268.06;10498302;28;20111;-75
2021/01/18 21:38:29;;;;;;;23.95;19.90;;;;;;;-7.26;100.00;95277.97;10531535;28;20479;-75
2021/01/18 21:43:29;;;;;;;27.00;15.63;;;;;;;-7.30;100.00;95284.47;10531921;28;20036;-75
2021/01/18 21:48:29;;;;;;;17.80;16.08;;;;;;;-7.24;100.00;95294.31;10512132;28;20373;-75
2021/01/18 21:53:30;;;;;;;21.73;17.07;;;;;;;-7.28;100.00;95290.38;10490574;28;20028;-75
2021/01/18 21:58:32;;;;;;;17.33;14.68;;;;;;;-7.29;100.00;95296.56;10489621;28;20282;-76
2021/01/18 22:03:32;;;;;;;21.58;17.40;;;;;;;-7.32;100.00;95290.81;10489267;28;20028;-76
2021/01/18 22:08:33;;;;;;;18.60;13.52;;;;;;;-7.29;100.00;95288.72;10489519;28;20029;-76
2021/01/18 22:13:33;;;;;;;17.77;12.30;;;;;;;-7.28;100.00;95287.75;10489442;28;20104;-76
2021/01/18 22:18:34;;;;;;;20.43;12.87;;;;;;;-7.22;100.00;95278.50;10488536;28;20753;-76
2021/01/18 22:23:34;;;;;;;20.52;18.55;;;;;;;-7.28;100.00;95279.91;10488251;28;20869;-76
2021/01/18 22:28:34;;;;;;;25.60;17.43;;;;;;;-7.45;100.00;95278.94;10488455;28;20102;-76
2021/01/18 22:33:35;;;;;;;28.23;16.47;;;;;;;-7.48;100.00;95276.66;10470639;28;20281;-76
2021/01/18 22:38:37;;;;;;;23.80;13.45;;;;;;;-7.47;100.00;95273.03;10488566;28;20020;-75
2021/01/18 22:43:38;;;;;;;22.85;15.98;;;;;;;-7.29;100.00;95274.84;10488748;28;20029;-75
2021/01/18 22:48:38;;;;;;;24.33;14.23;;;;;;;-7.30;100.00;95281.84;10488077;28;20468;-75
2021/01/18 22:53:40;;;;;;;16.87;12.10;;;;;;;-7.25;100.00;95274.41;10488015;28;20029;-75